Time;durP1;ratioP1;P1;durP2;ratioP2;P2;SDS_P1;SDS_P2;PMS_P1;PMS_P2;Temp;Humidity;BMP_temperature;BMP_pressure;BME280_temperature;BME280_humidity;BME280_pressure;Samples;Min_cycle;Max_cycle;Signal;HPM_P1;HPM_P2
2022/12/29 00:01:05;;;;;;;102.37;96.57;;;8.30;95.30;;;;;;4943914;29;20192;-93
2022/12/29 00:03:34;;;;;;;102.27;96.43;;;8.30;95.20;;;;;;4924568;29;20188;-93
2022/12/29 00:06:00;;;;;;;102.93;97.03;;;8.30;95.00;;;;;;5091934;23;20237;-93
2022/12/29 00:08:41;;;;;;;96.03;90.37;;;8.30;95.00;;;;;;5016486;28;20652;-92
2022/12/29 00:11:31;;;;;;;99.77;93.73;;;8.40;94.90;;;;;;5016419;28;20181;-92
2022/12/29 00:17:21;;;;;;;86.57;81.53;;;8.50;94.70;;;;;;5018747;28;20698;-93
2022/12/29 00:36:58;;;;;;;101.13;95.43;;;8.60;94.50;;;;;;5021672;28;20579;-93
2022/12/29 00:44:53;;;;;;;107.10;101.00;;;8.60;95.00;;;;;;5020701;28;20212;-94
2022/12/29 00:47:24;;;;;;;108.37;102.23;;;8.60;95.10;;;;;;5019784;28;20189;-93
2022/12/29 00:49:50;;;;;;;104.60;98.70;;;8.60;95.10;;;;;;5025223;28;20221;-94
2022/12/29 00:52:16;;;;;;;106.83;100.53;;;8.60;95.00;;;;;;5022030;28;20216;-93
2022/12/29 01:28:27;;;;;;;99.70;93.90;;;8.90;94.00;;;;;;759885;22;20597;-95
2022/12/29 01:31:01;;;;;;;106.33;99.93;;;8.90;94.00;;;;;;5033040;28;20189;-92
2022/12/29 01:33:26;;;;;;;107.13;100.80;;;8.90;94.20;;;;;;5030430;28;20231;-93
2022/12/29 01:35:59;;;;;;;108.03;101.33;;;8.80;94.30;;;;;;5030329;28;20197;-93
2022/12/29 01:38:24;;;;;;;108.17;102.07;;;8.80;94.50;;;;;;5030551;28;20173;-92
2022/12/29 01:40:50;;;;;;;111.80;105.40;;;8.90;94.50;;;;;;5029744;28;20246;-93
2022/12/29 01:43:16;;;;;;;113.70;107.10;;;8.80;94.60;;;;;;5030579;28;20185;-93
2022/12/29 01:45:48;;;;;;;111.87;105.57;;;8.80;94.60;;;;;;5029864;28;20204;-92
2022/12/29 01:48:14;;;;;;;117.23;110.40;;;8.90;94.70;;;;;;5021993;28;20173;-93
2022/12/29 01:50:50;;;;;;;118.83;111.63;;;8.80;94.70;;;;;;5023426;28;20215;-92
2022/12/29 01:53:30;;;;;;;109.50;103.30;;;8.90;94.70;;;;;;5026448;28;20213;-93
2022/12/29 01:56:01;;;;;;;116.10;109.37;;;8.90;94.70;;;;;;5029986;28;20292;-94
2022/12/29 01:58:39;;;;;;;113.47;106.77;;;8.90;94.70;;;;;;5030419;28;20241;-93
2022/12/29 02:01:11;;;;;;;117.23;110.63;;;8.90;94.60;;;;;;5033472;28;20192;-93
2022/12/29 02:03:37;;;;;;;110.03;103.50;;;8.90;94.60;;;;;;5014543;28;20328;-93
2022/12/29 02:06:11;;;;;;;114.80;108.13;;;9.00;94.60;;;;;;5029880;28;20193;-93
2022/12/29 02:08:40;;;;;;;113.80;107.27;;;9.00;94.60;;;;;;5032312;28;20200;-93
2022/12/29 02:11:07;;;;;;;117.13;110.43;;;9.00;94.60;;;;;;5031096;28;20173;-93
2022/12/29 02:13:33;;;;;;;124.20;116.97;;;9.00;94.60;;;;;;5029783;28;20205;-93
2022/12/29 02:16:50;;;;;;;118.50;111.70;;;9.00;94.70;;;;;;5033601;28;20223;-93
2022/12/29 02:19:47;;;;;;;123.27;115.97;;;9.00;94.70;;;;;;5010069;28;20224;-93
2022/12/29 02:22:35;;;;;;;127.07;119.57;;;9.00;94.70;;;;;;5031099;28;20173;-94
2022/12/29 02:25:13;;;;;;;119.77;112.60;;;9.00;94.80;;;;;;5030653;28;20220;-93
2022/12/29 02:27:48;;;;;;;128.07;120.67;;;9.00;94.90;;;;;;5031321;28;20196;-93
2022/12/29 02:30:38;;;;;;;123.57;116.23;;;9.00;94.90;;;;;;5032220;28;20220;-93
2022/12/29 02:33:42;;;;;;;126.37;119.07;;;9.00;94.80;;;;;;5033264;28;20287;-94
2022/12/29 02:36:19;;;;;;;116.47;109.90;;;9.10;94.80;;;;;;5016521;28;20265;-93
2022/12/29 02:39:17;;;;;;;116.70;109.87;;;9.10;94.80;;;;;;5034504;28;20173;-93
2022/12/29 04:45:58;;;;;;;57.23;54.03;;;10.00;91.20;;;;;;5016764;28;20240;-92
2022/12/29 04:48:26;;;;;;;60.87;57.40;;;9.90;91.70;;;;;;5002548;28;20252;-93
2022/12/29 04:50:52;;;;;;;65.70;62.00;;;9.90;92.30;;;;;;5003907;28;20242;-93
2022/12/29 04:53:19;;;;;;;69.37;65.47;;;9.80;92.80;;;;;;5001399;28;20212;-93
2022/12/29 04:55:48;;;;;;;83.80;79.10;;;9.80;93.10;;;;;;5003086;28;20261;-93
2022/12/29 04:58:13;;;;;;;100.40;94.80;;;9.80;93.30;;;;;;5003862;28;20182;-93
2022/12/29 05:00:39;;;;;;;105.10;99.23;;;9.70;93.90;;;;;;5000534;28;20181;-93
2022/12/29 05:03:08;;;;;;;102.80;97.17;;;9.70;94.20;;;;;;4998197;28;20186;-93
2022/12/29 05:05:33;;;;;;;106.67;100.77;;;9.60;94.40;;;;;;5001438;28;20222;-93
2022/12/29 05:08:01;;;;;;;118.07;111.57;;;9.50;94.60;;;;;;5000370;28;20648;-93
2022/12/29 05:10:27;;;;;;;113.43;107.13;;;9.60;94.60;;;;;;5001012;28;20162;-94
2022/12/29 05:12:53;;;;;;;107.70;101.80;;;9.60;94.70;;;;;;4996590;28;20204;-93
2022/12/29 05:15:18;;;;;;;103.40;97.43;;;9.70;94.80;;;;;;4998410;28;20185;-93
2022/12/29 05:17:44;;;;;;;106.77;100.70;;;9.60;95.00;;;;;;4993760;28;20633;-93
2022/12/29 05:20:12;;;;;;;106.87;100.87;;;9.60;95.20;;;;;;4993651;28;20178;-94
2022/12/29 05:22:38;;;;;;;114.23;107.93;;;9.60;95.20;;;;;;4996964;28;20182;-93
2022/12/29 05:25:06;;;;;;;93.50;88.10;;;9.60;95.20;;;;;;4992687;28;20209;-93
2022/12/29 05:27:31;;;;;;;95.07;89.80;;;9.80;94.80;;;;;;4996039;28;20178;-93
2022/12/29 05:29:57;;;;;;;98.13;92.73;;;9.80;94.40;;;;;;4997044;28;20186;-94
2022/12/29 05:32:23;;;;;;;98.20;92.80;;;9.80;94.70;;;;;;4996077;28;20257;-94
2022/12/29 05:34:49;;;;;;;96.27;91.00;;;9.80;94.80;;;;;;4995199;28;20198;-93
2022/12/29 05:37:15;;;;;;;103.83;98.03;;;9.80;95.00;;;;;;4996659;28;20178;-93
2022/12/29 05:39:41;;;;;;;99.63;94.17;;;9.80;95.00;;;;;;4997299;28;20205;-93
2022/12/29 05:42:06;;;;;;;97.93;92.53;;;9.80;95.20;;;;;;4994887;28;20196;-93
2022/12/29 05:44:32;;;;;;;96.90;91.50;;;9.90;94.90;;;;;;4997435;28;20213;-93
2022/12/29 05:46:57;;;;;;;93.73;88.40;;;9.90;94.90;;;;;;4995737;28;20196;-94
2022/12/29 05:49:23;;;;;;;96.47;90.47;;;9.80;94.80;;;;;;4996749;28;20178;-94
2022/12/29 05:51:49;;;;;;;95.33;90.03;;;9.90;94.70;;;;;;4995770;28;20242;-93
2022/12/29 05:54:14;;;;;;;95.43;90.07;;;9.90;94.40;;;;;;4994186;28;20739;-93
2022/12/29 05:56:40;;;;;;;89.70;84.60;;;9.80;94.40;;;;;;4995904;28;20162;-93
2022/12/29 05:59:05;;;;;;;89.10;84.17;;;9.80;94.30;;;;;;4996047;28;20186;-93
2022/12/29 06:01:31;;;;;;;93.63;88.43;;;9.90;94.00;;;;;;5001083;28;20178;-94
2022/12/29 06:03:57;;;;;;;94.30;88.90;;;9.80;94.00;;;;;;5000576;28;20185;-93
2022/12/29 06:06:25;;;;;;;88.00;83.00;;;9.80;93.90;;;;;;4996678;28;20194;-93
2022/12/29 06:08:56;;;;;;;92.67;87.00;;;9.90;93.70;;;;;;5000514;28;20520;-93
2022/12/29 06:11:25;;;;;;;83.43;78.53;;;9.90;93.60;;;;;;4999034;28;20182;-92
2022/12/29 06:13:53;;;;;;;91.77;86.57;;;9.90;93.50;;;;;;4999180;28;20205;-93
2022/12/29 06:16:22;;;;;;;88.07;83.00;;;9.90;93.40;;;;;;4998429;28;20198;-93
2022/12/29 06:18:48;;;;;;;80.77;76.17;;;10.00;93.30;;;;;;4999299;28;20163;-93
2022/12/29 06:21:13;;;;;;;87.10;82.03;;;9.90;93.10;;;;;;4998969;28;20177;-93
2022/12/29 06:23:42;;;;;;;93.13;87.70;;;9.90;93.20;;;;;;4999353;28;20158;-93
2022/12/29 06:26:07;;;;;;;91.20;86.00;;;9.80;93.20;;;;;;4998613;28;20710;-93
2022/12/29 06:28:33;;;;;;;92.63;87.43;;;9.80;93.10;;;;;;5001249;28;20182;-93
2022/12/29 06:30:59;;;;;;;85.07;80.27;;;9.80;93.20;;;;;;4998199;28;20250;-93
2022/12/29 06:33:27;;;;;;;88.63;83.70;;;9.80;93.10;;;;;;4998196;28;20656;-93
2022/12/29 06:35:53;;;;;;;84.13;79.43;;;9.70;93.00;;;;;;4997392;28;20205;-93
2022/12/29 06:38:18;;;;;;;77.43;73.03;;;9.80;92.70;;;;;;4996801;28;20171;-93
2022/12/29 06:40:47;;;;;;;77.47;72.97;;;9.70;92.70;;;;;;4998239;28;20190;-93
2022/12/29 06:43:15;;;;;;;75.20;71.00;;;9.70;92.70;;;;;;4998284;28;20242;-93
2022/12/29 06:45:40;;;;;;;75.90;71.60;;;9.70;92.50;;;;;;4998634;28;20206;-93
2022/12/29 06:48:07;;;;;;;72.13;68.03;;;9.70;92.40;;;;;;4998109;28;20169;-93
2022/12/29 06:50:32;;;;;;;74.43;69.97;;;9.80;92.20;;;;;;5000081;28;20154;-94
2022/12/29 06:53:01;;;;;;;70.03;66.00;;;9.80;92.20;;;;;;4998695;28;20190;-93
2022/12/29 06:55:28;;;;;;;68.70;64.23;;;9.80;92.10;;;;;;4999078;28;20267;-93
2022/12/29 06:57:58;;;;;;;62.83;59.10;;;9.80;92.10;;;;;;4999636;28;20178;-93
2022/12/29 07:00:24;;;;;;;66.80;62.93;;;9.80;92.10;;;;;;4999413;28;20241;-93
2022/12/29 07:02:59;;;;;;;60.63;57.23;;;9.70;92.20;;;;;;4998059;28;20174;-93
2022/12/29 07:05:27;;;;;;;56.50;53.10;;;9.90;92.00;;;;;;4998334;28;20767;-93
2022/12/29 07:08:22;;;;;;;60.87;57.47;;;9.90;91.90;;;;;;5153610;27;20540;-93
2022/12/29 07:10:54;;;;;;;46.43;43.17;;;9.90;91.40;;;;;;5153638;28;20177;-93
2022/12/29 07:13:27;;;;;;;48.27;45.27;;;10.00;90.80;;;;;;5235841;22;20222;-95
2022/12/29 07:18:28;;;;;;;40.73;38.33;;;9.90;90.60;;;;;;5253708;22;20481;-91
2022/12/29 08:41:08;;;;;;;17.67;16.57;;;10.30;86.60;;;;;;5069972;22;20241;-94
2022/12/29 08:43:33;;;;;;;18.10;16.80;;;10.20;86.20;;;;;;5012177;28;20220;-93
2022/12/29 08:46:02;;;;;;;20.00;18.57;;;10.30;86.10;;;;;;5012977;28;20216;-93
2022/12/29 08:48:31;;;;;;;21.97;20.30;;;10.00;86.90;;;;;;5008559;28;20184;-94
2022/12/29 08:51:00;;;;;;;20.93;19.23;;;10.00;87.00;;;;;;5009886;28;20212;-93
2022/12/29 08:53:28;;;;;;;21.43;19.93;;;10.00;87.30;;;;;;5027480;28;20201;-94
2022/12/29 08:56:27;;;;;;;;;;;;;;;;;;;;;
2022/12/29 08:58:53;;;;;;;20.87;19.17;;;10.00;87.50;;;;;;5034759;28;20212;-92
2022/12/29 09:04:37;;;;;;;18.83;17.60;;;10.00;87.30;;;;;;5027946;28;20199;-94
2022/12/29 09:07:04;;;;;;;22.10;20.43;;;10.00;87.80;;;;;;5011572;28;20268;-94
2022/12/29 09:09:29;;;;;;;20.33;19.00;;;10.10;88.00;;;;;;5008530;28;20200;-92
2022/12/29 09:11:55;;;;;;;18.93;17.40;;;10.20;88.20;;;;;;5005983;28;20181;-92
2022/12/29 09:14:21;;;;;;;21.03;19.67;;;10.20;87.90;;;;;;5008978;28;20194;-93
2022/12/29 09:19:31;;;;;;;19.93;18.63;;;10.10;88.30;;;;;;5022755;28;20176;-93
2022/12/29 09:21:56;;;;;;;17.70;16.70;;;10.10;87.90;;;;;;5004125;28;20178;-93
2022/12/29 09:24:24;;;;;;;16.77;15.53;;;10.10;87.60;;;;;;5004916;28;20201;-93
2022/12/29 09:26:50;;;;;;;15.50;14.37;;;10.20;86.70;;;;;;5007821;28;20205;-93
2022/12/29 09:29:16;;;;;;;17.90;16.57;;;10.20;86.70;;;;;;5012014;28;20552;-94
2022/12/29 09:31:41;;;;;;;17.50;15.97;;;10.20;86.80;;;;;;5009226;28;20174;-93
2022/12/29 09:34:07;;;;;;;18.23;16.97;;;10.20;86.80;;;;;;5009471;28;20220;-94
2022/12/29 09:36:32;;;;;;;19.53;17.57;;;10.10;87.20;;;;;;5010815;28;20177;-93
2022/12/29 09:38:58;;;;;;;18.17;16.37;;;10.10;87.20;;;;;;5002408;28;20239;-93
2022/12/29 09:41:33;;;;;;;16.57;15.40;;;10.10;87.60;;;;;;5015639;28;20212;-93
2022/12/29 09:44:23;;;;;;;19.10;17.67;;;10.10;87.30;;;;;;5013840;28;20173;-93
2022/12/29 09:46:51;;;;;;;18.33;17.30;;;10.10;87.60;;;;;;5009554;28;20197;-93
2022/12/29 09:49:33;;;;;;;18.30;17.10;;;10.10;87.50;;;;;;5001581;28;20177;-93
2022/12/29 09:52:04;;;;;;;19.83;18.00;;;10.00;87.60;;;;;;5003832;28;20165;-93
2022/12/29 09:54:36;;;;;;;18.57;17.33;;;10.00;87.60;;;;;;5005259;28;20201;-94
2022/12/29 09:57:02;;;;;;;15.07;13.87;;;10.00;87.50;;;;;;5006500;28;20626;-94
2022/12/29 09:59:43;;;;;;;16.53;15.33;;;10.00;86.70;;;;;;5002266;28;20181;-93
2022/12/29 10:02:28;;;;;;;18.20;16.80;;;10.00;86.70;;;;;;5013652;28;20170;-94
2022/12/29 10:04:57;;;;;;;16.50;15.40;;;10.00;87.10;;;;;;5008716;28;20236;-93
2022/12/29 10:07:57;;;;;;;17.00;15.60;;;10.10;86.50;;;;;;5007446;28;20209;-92
2022/12/29 10:10:37;;;;;;;17.47;16.33;;;10.00;86.80;;;;;;4993791;28;20185;-93
2022/12/29 10:13:12;;;;;;;17.50;15.90;;;9.90;87.00;;;;;;5003663;28;20192;-92
2022/12/29 10:16:05;;;;;;;16.53;15.33;;;9.90;87.00;;;;;;5003759;28;20197;-92
2022/12/29 10:19:09;;;;;;;17.57;16.30;;;10.00;86.70;;;;;;5004282;28;20639;-93
2022/12/29 10:22:04;;;;;;;14.83;13.73;;;10.00;87.10;;;;;;4940474;28;20185;-93
2022/12/29 10:24:34;;;;;;;16.87;15.63;;;10.00;86.50;;;;;;5006262;28;20194;-93
2022/12/29 10:27:00;;;;;;;17.17;15.20;;;10.00;86.80;;;;;;5011323;28;20208;-94
2022/12/29 10:29:33;;;;;;;15.77;14.33;;;10.00;86.50;;;;;;5010041;28;20169;-93
2022/12/29 10:32:08;;;;;;;14.47;13.30;;;10.10;85.40;;;;;;5014704;28;20185;-94
2022/12/29 10:34:41;;;;;;;15.13;13.93;;;10.20;85.10;;;;;;5008732;28;20197;-91
2022/12/29 10:37:34;;;;;;;15.27;14.00;;;10.10;85.20;;;;;;5007840;28;20640;-92
2022/12/29 10:40:11;;;;;;;14.27;13.07;;;10.00;85.20;;;;;;5005872;28;20174;-92
2022/12/29 10:42:48;;;;;;;14.40;13.33;;;10.00;84.30;;;;;;5012903;28;20197;-93
2022/12/29 10:45:16;;;;;;;13.80;12.77;;;10.00;84.80;;;;;;5150024;22;20207;-92
2022/12/29 10:48:00;;;;;;;14.23;12.83;;;10.00;84.80;;;;;;5047705;28;20227;-93
2022/12/29 10:50:35;;;;;;;15.13;13.90;;;10.00;84.90;;;;;;5049181;28;20199;-93
2022/12/29 10:53:05;;;;;;;21.23;13.37;;;10.00;84.90;;;;;;5044248;28;20518;-93
2022/12/29 10:55:36;;;;;;;14.63;13.13;;;10.00;85.00;;;;;;5039061;28;20207;-92
2022/12/29 10:58:11;;;;;;;12.80;11.67;;;10.00;84.60;;;;;;5034112;28;20160;-91
2022/12/29 11:00:37;;;;;;;12.40;11.40;;;10.10;84.30;;;;;;5035868;28;20164;-92
2022/12/29 11:03:42;;;;;;;14.03;12.73;;;10.10;83.90;;;;;;5035848;28;20314;-91
2022/12/29 11:06:21;;;;;;;13.27;12.17;;;10.20;83.90;;;;;;5036953;28;20298;-92
2022/12/29 11:09:01;;;;;;;13.03;11.97;;;10.30;83.80;;;;;;5039090;28;20192;-93
2022/12/29 11:11:37;;;;;;;15.30;13.17;;;10.50;82.90;;;;;;5044107;28;20165;-92
2022/12/29 11:14:17;;;;;;;13.57;12.57;;;10.50;82.60;;;;;;5039620;28;20642;-92
2022/12/29 11:16:44;;;;;;;11.60;10.80;;;10.30;82.50;;;;;;5037254;28;20168;-92
2022/12/29 11:19:28;;;;;;;14.40;12.90;;;10.50;82.30;;;;;;5033707;28;20227;-91
2022/12/29 11:21:54;;;;;;;12.53;11.50;;;10.50;82.10;;;;;;5034037;28;20657;-90
2022/12/29 11:24:21;;;;;;;13.13;12.13;;;10.40;81.90;;;;;;5033025;28;20201;-91
2022/12/29 11:27:08;;;;;;;13.10;11.90;;;10.30;83.00;;;;;;5032730;28;20200;-92
2022/12/29 11:29:39;;;;;;;12.63;11.63;;;10.20;83.10;;;;;;5031285;28;20173;-90
2022/12/29 11:32:31;;;;;;;14.13;12.03;;;10.20;82.70;;;;;;5032611;28;20264;-91
2022/12/29 11:34:58;;;;;;;16.53;12.07;;;10.20;83.20;;;;;;5028829;28;20201;-90
2022/12/29 11:37:38;;;;;;;12.70;11.67;;;10.10;83.30;;;;;;5038522;28;20181;-93
2022/12/29 11:40:33;;;;;;;13.47;12.37;;;10.10;82.90;;;;;;5037903;28;20168;-92
2022/12/29 11:43:03;;;;;;;13.63;12.50;;;10.20;82.40;;;;;;5031812;28;20279;-92
2022/12/29 11:46:05;;;;;;;12.77;11.77;;;10.10;83.40;;;;;;5040261;28;20201;-93
2022/12/29 11:48:42;;;;;;;12.47;11.50;;;10.10;83.10;;;;;;5046518;28;20246;-92
2022/12/29 11:51:12;;;;;;;12.80;12.00;;;10.20;83.10;;;;;;5040332;28;20180;-93
2022/12/29 11:53:51;;;;;;;12.83;11.57;;;10.20;83.00;;;;;;5040267;28;20197;-92
2022/12/29 11:56:22;;;;;;;12.13;11.20;;;10.30;83.20;;;;;;5039651;28;20212;-92
2022/12/29 11:58:50;;;;;;;12.43;11.43;;;10.30;82.90;;;;;;5037031;28;20226;-92
2022/12/29 12:01:38;;;;;;;13.40;12.10;;;10.30;83.00;;;;;;5042897;28;20271;-92
2022/12/29 12:04:30;;;;;;;11.77;10.67;;;10.30;83.10;;;;;;5045364;28;20200;-95
2022/12/29 12:07:05;;;;;;;16.97;15.20;;;10.40;82.10;;;;;;5053125;28;20216;-92
2022/12/29 12:09:58;;;;;;;16.10;15.00;;;10.30;82.70;;;;;;5048563;28;20263;-92
2022/12/29 12:12:49;;;;;;;16.27;15.27;;;10.20;82.80;;;;;;5044198;28;20614;-92
2022/12/29 12:15:36;;;;;;;16.47;14.93;;;10.10;83.20;;;;;;5050426;28;20196;-92
2022/12/29 12:36:55;;;;;;;18.30;17.07;;;9.70;86.60;;;;;;5519443;22;20237;-92
2022/12/29 12:43:18;;;;;;;19.37;17.97;;;9.40;88.40;;;;;;5136711;22;20237;-91
2022/12/29 12:45:50;;;;;;;19.63;17.70;;;9.50;88.30;;;;;;4998694;28;20683;-92
2022/12/29 12:48:19;;;;;;;18.83;17.53;;;9.50;88.50;;;;;;5000262;28;20236;-92
2022/12/29 12:51:02;;;;;;;18.93;17.53;;;9.40;88.60;;;;;;4999282;28;20671;-91
2022/12/29 12:53:43;;;;;;;19.77;18.13;;;9.40;89.00;;;;;;5000356;28;20169;-91
2022/12/29 12:56:31;;;;;;;20.53;18.57;;;9.30;89.30;;;;;;5000255;28;20197;-92
2022/12/29 12:59:04;;;;;;;23.37;18.00;;;9.30;89.60;;;;;;5002017;28;20174;-92
2022/12/29 13:02:32;;;;;;;19.50;17.80;;;9.50;88.80;;;;;;5004358;28;20188;-92
2022/12/29 13:48:12;;;;;;;13.53;12.50;;;9.30;88.30;;;;;;5004381;28;20245;-92
2022/12/29 13:50:54;;;;;;;13.77;12.50;;;9.20;88.40;;;;;;4985339;28;20178;-93
2022/12/29 13:56:59;;;;;;;13.50;12.20;;;9.20;88.30;;;;;;5186561;22;20240;-93
2022/12/29 13:59:35;;;;;;;14.67;13.20;;;9.20;88.30;;;;;;5006420;28;20212;-92
2022/12/29 14:05:31;;;;;;;13.20;11.90;;;9.00;88.80;;;;;;5045356;22;20245;-90
2022/12/29 14:08:18;;;;;;;13.60;12.40;;;9.00;88.60;;;;;;5015245;28;20209;-93
2022/12/29 14:18:44;;;;;;;15.63;14.10;;;8.80;88.60;;;;;;5027237;28;20213;-92
2022/12/29 14:22:04;;;;;;;15.73;14.20;;;8.80;88.90;;;;;;5019024;28;20177;-93
2022/12/29 14:24:34;;;;;;;17.87;16.23;;;8.70;89.60;;;;;;4993408;28;20206;-92
2022/12/29 14:50:46;;;;;;;16.43;13.87;;;8.30;89.60;;;;;;5032161;28;20213;-91
2022/12/29 14:53:44;;;;;;;21.60;14.40;;;8.30;89.60;;;;;;5019966;28;20184;-92
2022/12/29 14:56:32;;;;;;;14.83;13.27;;;8.30;89.70;;;;;;5008498;28;20204;-91
2022/12/29 14:59:06;;;;;;;20.73;14.03;;;8.30;89.70;;;;;;5005781;28;20180;-91
2022/12/29 15:01:56;;;;;;;18.73;14.00;;;8.30;89.80;;;;;;5022861;28;20173;-93
2022/12/29 15:04:35;;;;;;;14.67;13.27;;;8.30;89.80;;;;;;5005021;28;20223;-92
2022/12/29 15:07:06;;;;;;;13.90;12.03;;;8.30;89.80;;;;;;5001106;28;20340;-92
2022/12/29 15:09:49;;;;;;;17.20;15.40;;;8.30;89.80;;;;;;5004640;28;20165;-92
2022/12/29 15:12:41;;;;;;;23.63;14.50;;;8.30;90.00;;;;;;5005825;28;20256;-93
2022/12/29 15:15:29;;;;;;;15.63;13.60;;;8.30;89.90;;;;;;5095650;22;20225;-93
2022/12/29 15:18:26;;;;;;;16.63;15.03;;;8.40;89.90;;;;;;5022187;28;20652;-92
2022/12/29 15:20:59;;;;;;;21.37;15.10;;;8.40;89.90;;;;;;5008823;28;20197;-92
2022/12/29 15:23:25;;;;;;;20.23;16.23;;;8.40;90.20;;;;;;5006364;28;20174;-92
2022/12/29 15:26:27;;;;;;;19.10;17.17;;;8.30;90.60;;;;;;5010844;28;20563;-92
2022/12/29 15:28:56;;;;;;;20.93;18.90;;;8.30;90.70;;;;;;5015857;28;20157;-92
2022/12/29 15:37:20;;;;;;;18.57;16.47;;;8.30;90.80;;;;;;5071550;22;20236;-92
2022/12/29 16:31:49;;;;;;;23.23;13.80;;;7.80;89.50;;;;;;5378633;22;20581;-94
2022/12/29 17:23:40;;;;;;;26.37;15.63;;;7.00;91.20;;;;;;5016469;28;20221;-92
2022/12/29 17:26:07;;;;;;;15.97;14.37;;;7.20;91.10;;;;;;5199127;22;20215;-91
2022/12/29 17:28:33;;;;;;;16.83;14.53;;;7.20;90.80;;;;;;5087287;22;20236;-91
2022/12/29 17:31:04;;;;;;;21.33;14.60;;;7.30;90.90;;;;;;5023850;28;20271;-92
2022/12/29 17:33:48;;;;;;;15.70;14.03;;;7.30;90.60;;;;;;5030149;28;20165;-92
2022/12/29 18:07:31;;;;;;;20.03;15.53;;;7.50;90.70;;;;;;5023444;28;20271;-90
2022/12/29 18:25:54;;;;;;;17.73;14.97;;;7.50;90.50;;;;;;5909982;22;20207;-92
2022/12/29 18:28:20;;;;;;;22.67;15.53;;;7.60;90.40;;;;;;5014546;28;20625;-91
2022/12/29 18:30:46;;;;;;;15.63;14.10;;;7.60;90.40;;;;;;5050170;22;20291;-91
2022/12/29 18:33:16;;;;;;;19.47;14.90;;;7.60;90.30;;;;;;5039983;28;20164;-90
2022/12/29 18:36:04;;;;;;;22.60;14.67;;;7.70;90.30;;;;;;5044208;28;20300;-91
2022/12/29 18:38:36;;;;;;;18.73;15.30;;;7.70;90.30;;;;;;5048097;28;20176;-93
2022/12/29 18:48:46;;;;;;;18.43;15.90;;;7.60;90.40;;;;;;5021765;28;20263;-91
2022/12/29 18:51:28;;;;;;;21.03;15.87;;;7.70;90.40;;;;;;5010923;28;20205;-91
2022/12/29 18:57:09;;;;;;;18.57;16.90;;;7.70;90.80;;;;;;5201379;22;20223;-94
2022/12/29 18:59:42;;;;;;;22.97;16.13;;;7.70;90.90;;;;;;5015981;28;20181;-94
2022/12/29 19:02:16;;;;;;;26.57;18.07;;;7.70;91.10;;;;;;5019067;28;20165;-93
2022/12/29 19:04:41;;;;;;;20.57;18.43;;;7.70;91.40;;;;;;5020322;28;20204;-92
2022/12/29 19:07:07;;;;;;;19.20;17.20;;;7.70;91.60;;;;;;5093888;22;20209;-92
2022/12/29 19:09:32;;;;;;;17.07;15.53;;;7.70;91.90;;;;;;5025433;28;20168;-91
2022/12/29 19:11:58;;;;;;;21.87;17.10;;;7.70;91.60;;;;;;5020693;28;20667;-92
2022/12/29 19:14:24;;;;;;;20.90;16.43;;;7.70;91.50;;;;;;5024787;28;20235;-92
2022/12/29 19:16:49;;;;;;;22.17;16.03;;;7.70;91.40;;;;;;5032039;28;20236;-92
2022/12/29 19:19:16;;;;;;;17.40;15.93;;;7.60;91.50;;;;;;5022589;28;20173;-93
2022/12/29 19:21:42;;;;;;;17.90;16.00;;;7.50;91.70;;;;;;5020155;28;20184;-91
2022/12/29 19:24:07;;;;;;;18.20;16.30;;;7.50;91.60;;;;;;5016029;28;20181;-92
2022/12/29 19:26:36;;;;;;;19.00;17.40;;;7.40;91.70;;;;;;5014896;28;20174;-92
2022/12/29 19:29:03;;;;;;;19.37;17.30;;;7.50;91.90;;;;;;5015286;28;20184;-91
2022/12/29 19:31:28;;;;;;;18.27;16.33;;;7.50;92.10;;;;;;5013812;28;20209;-93
2022/12/29 19:33:54;;;;;;;22.07;18.70;;;7.40;92.30;;;;;;5024990;28;20197;-93
2022/12/29 19:36:20;;;;;;;18.50;17.10;;;7.50;92.40;;;;;;5017399;28;20208;-92
2022/12/29 19:38:46;;;;;;;18.00;16.17;;;7.70;92.20;;;;;;5015976;28;20177;-92
2022/12/29 19:41:13;;;;;;;18.90;17.30;;;7.80;91.70;;;;;;5017214;28;20212;-92
2022/12/29 19:43:39;;;;;;;17.47;15.73;;;7.80;92.20;;;;;;5018021;28;20249;-93
2022/12/29 19:46:07;;;;;;;18.03;16.23;;;7.70;91.80;;;;;;5021214;28;20221;-92
2022/12/29 19:48:33;;;;;;;13.90;13.07;;;7.70;91.60;;;;;;5025672;28;20316;-92
2022/12/29 19:51:07;;;;;;;14.20;13.00;;;7.70;90.50;;;;;;5022734;28;20181;-92
2022/12/29 19:53:34;;;;;;;13.13;12.10;;;7.60;90.20;;;;;;5021993;28;20169;-93
2022/12/29 19:56:03;;;;;;;14.23;12.83;;;7.60;90.00;;;;;;5025656;28;20193;-92
2022/12/29 19:58:35;;;;;;;12.87;12.07;;;7.60;90.00;;;;;;5035099;28;20182;-93
2022/12/29 20:01:21;;;;;;;13.63;12.73;;;7.50;89.70;;;;;;5035165;28;20242;-93
2022/12/29 20:03:51;;;;;;;14.00;12.73;;;7.50;89.80;;;;;;5033922;28;20162;-93
2022/12/29 20:06:20;;;;;;;13.70;12.70;;;7.40;90.00;;;;;;5035657;28;20217;-92
2022/12/29 20:09:06;;;;;;;13.57;12.43;;;7.40;90.00;;;;;;5036804;28;20190;-92
2022/12/29 20:11:32;;;;;;;15.17;14.03;;;7.40;90.10;;;;;;5037911;28;20158;-92
2022/12/29 20:13:57;;;;;;;15.27;14.00;;;7.30;90.30;;;;;;5037846;28;20236;-93
2022/12/29 20:16:23;;;;;;;15.10;13.90;;;7.30;90.60;;;;;;5033392;28;20223;-93
2022/12/29 20:18:49;;;;;;;13.60;12.70;;;7.30;90.70;;;;;;5032545;28;20201;-93
2022/12/29 20:24:32;;;;;;;13.57;12.67;;;7.20;91.00;;;;;;5029738;28;20172;-93
2022/12/29 20:26:59;;;;;;;14.30;13.10;;;7.10;91.20;;;;;;5024777;28;20274;-92
2022/12/29 20:29:25;;;;;;;14.07;12.90;;;7.00;91.20;;;;;;5022855;28;20178;-92
2022/12/29 20:31:51;;;;;;;15.20;13.83;;;6.90;91.30;;;;;;5021604;28;20178;-93
2022/12/29 20:34:18;;;;;;;15.27;14.10;;;7.00;91.30;;;;;;5024100;28;20177;-92
2022/12/29 20:36:46;;;;;;;15.57;14.17;;;6.90;91.50;;;;;;5023105;28;20192;-93
2022/12/29 20:39:18;;;;;;;15.10;13.90;;;6.90;91.60;;;;;;5024184;28;20196;-93
2022/12/29 20:41:44;;;;;;;17.87;16.20;;;6.80;91.80;;;;;;5031015;28;20178;-92
2022/12/29 20:44:10;;;;;;;17.00;15.57;;;6.80;91.80;;;;;;5023861;28;20181;-92
2022/12/29 20:46:39;;;;;;;15.07;13.90;;;6.80;91.90;;;;;;5023725;28;20192;-93
2022/12/29 20:49:43;;;;;;;15.90;13.67;;;6.80;91.90;;;;;;5033319;28;20213;-93
2022/12/29 20:52:09;;;;;;;17.83;14.60;;;6.80;91.80;;;;;;5072291;22;20256;-93
2022/12/29 20:54:35;;;;;;;15.23;14.03;;;6.80;91.80;;;;;;5046205;28;20188;-93
2022/12/29 20:57:00;;;;;;;14.90;13.90;;;6.80;91.90;;;;;;5046973;28;20218;-93
2022/12/29 20:59:26;;;;;;;16.17;14.97;;;6.80;92.00;;;;;;5042116;28;20187;-92
2022/12/29 21:01:51;;;;;;;17.67;15.93;;;6.90;91.80;;;;;;5042087;28;20282;-92
2022/12/29 21:04:17;;;;;;;18.43;16.47;;;6.90;91.90;;;;;;5048721;28;20234;-92
2022/12/29 21:06:42;;;;;;;20.03;15.30;;;6.90;91.90;;;;;;5045012;28;20204;-93
2022/12/29 21:09:08;;;;;;;20.43;16.23;;;7.00;91.60;;;;;;5045158;28;20173;-92
2022/12/29 21:11:34;;;;;;;24.20;15.60;;;7.00;91.50;;;;;;5043894;28;20177;-94
2022/12/29 21:14:00;;;;;;;17.23;14.70;;;7.00;91.20;;;;;;5050211;28;20181;-93
2022/12/29 21:16:25;;;;;;;14.07;12.97;;;7.00;91.10;;;;;;5049760;28;20197;-93
2022/12/29 21:18:51;;;;;;;15.77;14.37;;;7.00;90.80;;;;;;5051356;28;20203;-93
2022/12/29 21:21:21;;;;;;;21.33;13.87;;;6.90;90.30;;;;;;5053443;28;20185;-93
2022/12/29 21:23:47;;;;;;;16.63;14.17;;;7.00;89.60;;;;;;5048217;28;20165;-92
2022/12/29 21:26:15;;;;;;;13.73;12.40;;;7.00;89.20;;;;;;5042103;28;20202;-92
2022/12/29 21:28:42;;;;;;;12.60;11.37;;;7.00;88.70;;;;;;5041699;28;20211;-93
2022/12/29 21:31:10;;;;;;;15.17;12.13;;;6.90;88.30;;;;;;5040627;28;20167;-93
2022/12/29 21:33:37;;;;;;;13.13;11.93;;;7.00;87.80;;;;;;5044452;28;20199;-93
2022/12/29 21:36:07;;;;;;;15.83;12.17;;;6.90;87.60;;;;;;5043936;28;20196;-93
2022/12/29 21:38:34;;;;;;;18.83;11.53;;;6.90;87.10;;;;;;5041047;28;20222;-93
2022/12/29 21:41:11;;;;;;;11.80;9.97;;;6.80;86.80;;;;;;5042394;28;20177;-93
2022/12/29 21:43:37;;;;;;;14.63;12.40;;;6.70;87.00;;;;;;5042030;28;20172;-93
2022/12/29 21:46:03;;;;;;;11.43;10.40;;;6.60;87.30;;;;;;5039770;28;20204;-92
2022/12/29 21:48:29;;;;;;;11.57;10.67;;;6.60;87.30;;;;;;5039874;28;20196;-92
2022/12/29 21:53:43;;;;;;;15.30;11.73;;;6.50;87.60;;;;;;5037243;28;20160;-93
2022/12/29 21:56:12;;;;;;;12.80;11.13;;;6.50;87.70;;;;;;5037326;28;20666;-93
2022/12/29 22:13:32;;;;;;;11.67;10.57;;;6.30;88.60;;;;;;5053877;28;20208;-93
2022/12/29 22:16:22;;;;;;;;;;;;;;;;;;;;;
2022/12/29 22:18:51;;;;;;;12.53;11.33;;;6.30;88.90;;;;;;5057044;28;20219;-93
2022/12/29 22:21:34;;;;;;;18.13;11.23;;;6.30;88.90;;;;;;5055561;28;20175;-94
2022/12/29 22:34:22;;;;;;;13.60;12.07;;;6.50;89.90;;;;;;5029316;28;20209;-94